createdAt,value
2022-11-05T00:05:14.373Z,97706.94
2022-11-05T00:10:28.164Z,97716.50
2022-11-05T00:15:48.519Z,97716.66
2022-11-05T00:20:50.616Z,97723.97
2022-11-05T00:26:04.203Z,97723.00
2022-11-05T00:31:11.718Z,97723.97
2022-11-05T00:36:13.678Z,97725.75
2022-11-05T00:41:15.564Z,97731.91
2022-11-05T00:46:17.637Z,97744.88
2022-11-05T00:51:19.511Z,97745.69
2022-11-05T00:56:21.329Z,97745.69
2022-11-05T01:01:24.100Z,97758.00
2022-11-05T01:06:26.060Z,97765.59
2022-11-05T01:11:34.003Z,97762.84
2022-11-05T01:16:36.504Z,97757.97
2022-11-05T01:21:38.524Z,97759.75
2022-11-05T01:26:40.443Z,97766.53
2022-11-05T01:31:42.524Z,97779.34
2022-11-05T01:36:44.546Z,97786.47
2022-11-05T01:41:46.437Z,97788.25
2022-11-05T01:46:48.501Z,97807.53
2022-11-05T01:51:51.469Z,97815.31
2022-11-05T01:57:01.420Z,97824.38
2022-11-05T02:02:05.172Z,97816.94
2022-11-05T02:07:09.768Z,97815.81
2022-11-05T02:12:13.708Z,97816.16
2022-11-05T02:17:43.632Z,97818.13
2022-11-05T02:23:10.168Z,97824.44
2022-11-05T02:28:44.921Z,97834.97
2022-11-05T02:34:14.492Z,97850.69
2022-11-05T02:39:22.454Z,97855.22
2022-11-05T02:44:29.707Z,97848.91
2022-11-05T02:49:44.214Z,97851.34
2022-11-05T02:54:55.522Z,97848.41
2022-11-05T03:00:01.667Z,97857.97
2022-11-05T03:05:04.712Z,97870.13
2022-11-05T03:10:37.592Z,97869.31
2022-11-05T03:15:47.815Z,97876.75
2022-11-05T03:21:16.485Z,97885.97
2022-11-05T03:26:40.610Z,97888.38
2022-11-05T03:31:46.870Z,97896.00
2022-11-05T03:36:56.307Z,97888.88
2022-11-05T03:41:59.989Z,97902.63
2022-11-05T03:47:10.081Z,97902.63
2022-11-05T03:52:19.932Z,97909.25
2022-11-05T03:57:30.196Z,97915.25
2022-11-05T04:02:32.471Z,97924.97
2022-11-05T04:07:53.198Z,97925.97
2022-11-05T04:13:13.690Z,97933.91
2022-11-05T04:18:16.181Z,97934.88
2022-11-05T04:23:36.378Z,97946.22
2022-11-05T04:28:56.711Z,97952.84
2022-11-05T04:33:58.481Z,97959.81
2022-11-05T04:39:00.381Z,97971.81
2022-11-05T04:44:02.509Z,97983.78
2022-11-05T04:49:04.376Z,97977.78
2022-11-05T04:54:06.232Z,97976.00
2022-11-05T04:59:08.022Z,97981.19
2022-11-05T05:04:09.823Z,97986.38
2022-11-05T05:09:11.671Z,97991.56
2022-11-05T05:14:13.649Z,98007.28
2022-11-05T05:19:15.649Z,98009.06
2022-11-05T05:24:19.833Z,98016.03
2022-11-05T05:29:21.671Z,98011.66
2022-11-05T05:34:23.562Z,98026.56
2022-11-05T05:39:27.048Z,98037.56
2022-11-05T05:44:29.090Z,98041.78
2022-11-05T05:49:30.943Z,98041.78
2022-11-05T05:54:35.997Z,98041.94
2022-11-05T05:59:40.645Z,98053.13
2022-11-05T06:04:42.904Z,98054.91
2022-11-05T06:09:47.260Z,98048.28
2022-11-05T06:14:49.218Z,98058.63
2022-11-05T06:19:51.033Z,98064.63
2022-11-05T06:24:52.933Z,98078.41
2022-11-05T06:29:55.787Z,98088.75
2022-11-05T06:34:58.024Z,98101.88
2022-11-05T06:40:00.710Z,98111.59
2022-11-05T06:45:03.867Z,98116.78
2022-11-05T06:50:06.380Z,98125.38
2022-11-05T06:55:08.645Z,98131.53
2022-11-05T07:00:11.733Z,98151.13
2022-11-05T07:05:14.948Z,98151.13
2022-11-05T07:10:18.719Z,98157.13
2022-11-05T07:15:23.674Z,98166.34
2022-11-05T07:20:30.724Z,98175.28
2022-11-05T07:25:35.810Z,98181.44
2022-11-05T07:30:38.612Z,98187.91
2022-11-05T07:35:40.953Z,98212.53
2022-11-05T07:40:43.126Z,98214.31
2022-11-05T07:45:47.748Z,98215.75
2022-11-05T07:50:52.172Z,98225.00
2022-11-05T07:55:54.066Z,98230.69
2022-11-05T08:00:57.987Z,98230.84
2022-11-05T08:06:00.056Z,98240.59
2022-11-05T08:11:06.912Z,98245.94
2022-11-05T08:16:09.766Z,98250.78
2022-11-05T08:21:11.826Z,98252.09
2022-11-05T08:26:13.849Z,98255.22
2022-11-05T08:31:17.940Z,98262.03
2022-11-05T08:36:19.864Z,98268.03
2022-11-05T08:41:21.711Z,98269.81
2022-11-05T08:46:23.833Z,98278.88
2022-11-05T08:51:26.106Z,98291.69
2022-11-05T08:56:28.143Z,98291.53
2022-11-05T09:01:30.214Z,98294.78
2022-11-05T09:06:32.330Z,98299.16
2022-11-05T09:12:10.705Z,98293.31
2022-11-05T09:17:17.188Z,98290.06
2022-11-05T09:22:19.067Z,98301.09
2022-11-05T09:27:21.040Z,98300.78
2022-11-05T09:32:23.504Z,98300.13
2022-11-05T09:37:26.952Z,98303.06
2022-11-05T09:42:35.613Z,98301.44
2022-11-05T09:47:58.392Z,98315.38
2022-11-05T09:59:44.949Z,98313.41
2022-11-05T10:04:50.166Z,98316.97
2022-11-05T10:09:59.986Z,98320.19
2022-11-05T10:15:14.881Z,98332.03
2022-11-05T10:20:32.614Z,98337.88
2022-11-05T10:25:39.640Z,98347.66
2022-11-05T10:30:42.291Z,98346.69
2022-11-05T10:35:57.847Z,98356.59
2022-11-05T10:41:14.866Z,98351.88
2022-11-05T10:46:22.981Z,98345.84
2022-11-05T10:51:25.444Z,98350.19
2022-11-05T10:56:35.005Z,98356.50
2022-11-05T11:02:09.294Z,98350.16
2022-11-05T11:07:24.479Z,98358.78
2022-11-05T11:12:42.773Z,98365.00
2022-11-05T11:17:44.671Z,98368.41
2022-11-05T11:23:16.419Z,98379.47
2022-11-05T11:28:52.394Z,98372.47
2022-11-05T11:34:26.048Z,98370.53
2022-11-05T11:39:31.162Z,98372.16
2022-11-05T11:44:41.298Z,98368.88
2022-11-05T11:49:54.699Z,98371.16
2022-11-05T11:55:11.722Z,98378.63
2022-11-05T12:00:15.513Z,98378.16
2022-11-05T12:05:17.715Z,98377.69
2022-11-05T12:10:38.898Z,98376.72
2022-11-05T12:15:57.877Z,98373.78
2022-11-05T12:21:15.378Z,98378.34
2022-11-05T12:26:27.930Z,98375.41
2022-11-05T12:31:48.735Z,98377.53
2022-11-05T12:37:02.714Z,98382.22
2022-11-05T12:42:45.923Z,98384.50
2022-11-05T12:48:35.829Z,98380.59
2022-11-05T12:53:51.248Z,98380.41
2022-11-05T12:59:04.543Z,98381.88
2022-11-05T13:04:18.353Z,98389.69
2022-11-05T13:09:28.127Z,98382.03
2022-11-05T13:14:41.929Z,98391.13
2022-11-05T13:19:50.320Z,98387.91
2022-11-05T13:25:04.610Z,98393.25
2022-11-05T13:30:12.979Z,98407.06
2022-11-05T13:35:45.753Z,98406.72
2022-11-05T13:41:12.968Z,98409.97
2022-11-05T13:46:39.487Z,98412.41
2022-11-05T13:51:52.333Z,98418.09
2022-11-05T13:56:59.899Z,98423.78
2022-11-05T14:02:12.122Z,98418.41
2022-11-05T14:07:25.789Z,98437.91
2022-11-05T14:12:40.100Z,98434.97
2022-11-05T14:18:06.468Z,98443.59
2022-11-05T14:23:41.302Z,98446.50
2022-11-05T14:28:46.113Z,98430.78
2022-11-05T14:34:14.344Z,98439.03
2022-11-05T14:39:41.407Z,98441.97
2022-11-05T14:45:10.085Z,98452.84
2022-11-05T14:50:28.079Z,98454.28
2022-11-05T14:55:35.115Z,98459.16
2022-11-05T15:00:40.744Z,98462.03
2022-11-05T15:05:48.664Z,98473.53
2022-11-05T15:10:57.489Z,98472.69
2022-11-05T15:16:03.990Z,98477.22
2022-11-05T15:21:09.774Z,98480.75
2022-11-05T15:26:27.849Z,98485.94
2022-11-05T15:31:46.453Z,98476.31
2022-11-05T15:36:51.567Z,98492.34
2022-11-05T15:47:46.356Z,98490.00
2022-11-05T15:52:54.718Z,98495.94
2022-11-05T15:58:01.678Z,98500.63
2022-11-05T16:03:34.131Z,98492.66
2022-11-05T16:08:36.339Z,98503.63
2022-11-05T16:13:41.254Z,98504.38
2022-11-05T16:18:45.284Z,98513.44
2022-11-05T16:23:49.771Z,98513.38
2022-11-05T16:28:52.128Z,98522.56
2022-11-05T16:33:54.827Z,98522.34
2022-11-05T16:38:58.023Z,98525.53
2022-11-05T16:44:00.384Z,98534.56
2022-11-05T16:49:02.685Z,98537.59
2022-11-05T16:54:05.671Z,98533.53
2022-11-05T16:59:10.577Z,98538.19
2022-11-05T17:04:13.770Z,98544.47
2022-11-05T17:09:16.283Z,98544.63
2022-11-05T17:14:30.236Z,98548.03
2022-11-05T17:19:32.985Z,98544.47
2022-11-05T17:24:35.051Z,98549.00
2022-11-05T17:29:38.326Z,98553.50
2022-11-05T17:34:40.532Z,98558.97
2022-11-05T17:40:07.937Z,98563.63
2022-11-05T17:45:11.815Z,98564.72
2022-11-05T17:50:15.883Z,98576.19
2022-11-05T17:55:17.789Z,98582.47
2022-11-05T18:00:22.957Z,98578.69
2022-11-05T18:05:27.841Z,98579.94
2022-11-05T18:10:30.124Z,98598.34
2022-11-05T18:15:32.274Z,98600.41
2022-11-05T18:20:34.298Z,98598.25
2022-11-05T18:25:36.534Z,98615.03
2022-11-05T18:30:39.610Z,98616.13
2022-11-05T18:35:43.243Z,98617.09
2022-11-05T18:40:45.325Z,98614.50
2022-11-05T18:45:56.258Z,98615.47
2022-11-05T18:51:01.824Z,98622.56
2022-11-05T18:56:15.942Z,98626.78
2022-11-05T19:01:21.449Z,98628.97
2022-11-05T19:06:25.828Z,98623.13
2022-11-05T19:11:28.150Z,98627.63
2022-11-05T19:16:32.574Z,98621.78
2022-11-05T19:21:35.815Z,98623.56
2022-11-05T19:26:37.892Z,98620.28
2022-11-05T19:31:39.853Z,98631.47
2022-11-05T19:36:43.001Z,98622.19
2022-11-05T19:41:44.884Z,98620.56
2022-11-05T19:46:47.887Z,98632.03
2022-11-05T19:51:49.746Z,98635.84
2022-11-05T19:56:52.032Z,98647.28
2022-11-05T20:01:53.945Z,98633.69
2022-11-05T20:06:56.009Z,98641.59
2022-11-05T20:11:58.137Z,98642.69
2022-11-05T20:17:00.081Z,98642.00
2022-11-05T20:22:01.990Z,98648.28
2022-11-05T20:27:03.864Z,98650.19
2022-11-05T20:32:08.909Z,98663.25
2022-11-05T20:37:10.717Z,98663.38
2022-11-05T20:42:12.867Z,98666.94
2022-11-05T20:47:14.681Z,98665.28
2022-11-05T20:52:17.405Z,98670.47
2022-11-05T20:57:19.743Z,98675.66
2022-11-05T21:02:25.427Z,98668.16
2022-11-05T21:07:27.448Z,98663.13
2022-11-05T21:12:29.186Z,98654.56
2022-11-05T21:17:30.993Z,98654.56
2022-11-05T21:22:32.827Z,98658.22
2022-11-05T21:27:37.951Z,98645.69
2022-11-05T21:32:41.754Z,98663.94
2022-11-05T21:37:43.572Z,98662.28
2022-11-05T21:42:45.454Z,98664.06
2022-11-05T21:47:50.607Z,98668.56
2022-11-05T21:53:10.900Z,98666.91
2022-11-05T21:58:34.074Z,98669.66
2022-11-05T22:03:35.840Z,98668.97
2022-11-05T22:08:37.614Z,98669.91
2022-11-05T22:13:39.407Z,98673.47
2022-11-05T22:18:41.147Z,98665.84
2022-11-05T22:23:42.898Z,98655.09
2022-11-05T22:28:44.707Z,98662.19
2022-11-05T22:33:46.938Z,98650.88
2022-11-05T22:38:48.785Z,98653.59
2022-11-05T22:43:50.665Z,98660.53
2022-11-05T22:48:53.464Z,98656.19
2022-11-05T22:54:06.671Z,98642.59
2022-11-05T22:59:13.133Z,98640.81
2022-11-05T23:04:21.242Z,98645.72
2022-11-05T23:09:48.789Z,98644.75
2022-11-05T23:14:51.885Z,98646.25
2022-11-05T23:20:12.354Z,98647.88
2022-11-05T23:25:20.083Z,98653.06
2022-11-05T23:30:24.986Z,98650.59
2022-11-05T23:35:45.387Z,98655.91
2022-11-05T23:41:05.664Z,98656.06
2022-11-05T23:46:26.566Z,98647.47
2022-11-05T23:52:24.287Z,98651.84
2022-11-05T23:57:38.387Z,98651.16
